Koki Maru No.30 — JD2396 — position and weather

sailwx.info

Track history (hours):
 
Tides and Currents Weather Stations Pressure Air Temp Water Temp Dewpoint Dewpoint Depression Visibility Wind Speed Wind Dir Waves Ship Positions

Koki Maru No.30

Last reported at 2017-Dec-11 09:15 UTC. Time now 2017-Dec-11 11:20 UTC.
Position N 34°31' E 134°01'.

Length 53 m; draft 3 m.

Type: Tanker. MMSI: 431000173.

Date/timePositionNaut miles runAvg speedWind from/ knotsBaromVisibWave heightAir tempDewpointWater temp
2017-Dec-11 09:15N 34°31' E 134°01'19 0.4
2017-Dec-09 10:26N 34°26' E 134°24'511.4
2017-Dec-09 10:00N 34°28' E 134°29'611.2
2017-Dec-09 09:31N 34°30' E 134°36'510.9
2017-Dec-09 09:01N 34°32' E 134°42'611.1
2017-Dec-09 08:31N 34°34' E 134°48'510.9
2017-Dec-09 08:01N 34°36' E 134°54'510.4
2017-Dec-09 07:31N 34°37' E 135°00'510.8
2017-Dec-09 07:00N 34°35' E 135°06'611.5
2017-Dec-09 06:31N 34°35' E 135°13'510.0
2017-Dec-09 06:01N 34°34' E 135°19'4 8.9
2017-Dec-09 05:31N 34°33' E 135°24'1 1.7
2017-Dec-09 05:00N 34°33' E 135°25'0 0.0
2017-Dec-09 04:31N 34°33' E 135°25'0 0.0
2017-Dec-09 04:01N 34°33' E 135°25'0 0.0
2017-Dec-09 03:31N 34°33' E 135°25'3 5.5
2017-Dec-09 03:01N 34°33' E 135°22'611.1
2017-Dec-09 02:31N 34°34' E 135°15'611.1
2017-Dec-09 02:01N 34°35' E 135°08'510.1
2017-Dec-09 01:30N 34°36' E 135°02'4 8.0
2017-Dec-09 01:00N 34°37' E 134°57'5 9.7
2017-Dec-09 00:31N 34°38' E 134°52'5 9.9
2017-Dec-09 00:01N 34°41' E 134°48'3 2.1
2017-Dec-08 22:48N 34°44' E 134°48'0 0.0
2017-Dec-08 22:30N 34°44' E 134°48'1 1.4
2017-Dec-08 22:00N 34°43' E 134°48'0 0.1
2017-Dec-08 21:30N 34°43' E 134°48'0 0.1
2017-Dec-08 21:00N 34°43' E 134°48'0 0.0
2017-Dec-08 20:26N 34°43' E 134°48'0 0.0
2017-Dec-08 20:00N 34°43' E 134°48'1 1.5
2017-Dec-08 19:30N 34°43' E 134°48'510.3
2017-Dec-08 19:01N 34°38' E 134°51'5 9.6
2017-Dec-08 18:31N 34°37' E 134°57'510.1
2017-Dec-08 18:01N 34°36' E 135°03'510.0
2017-Dec-08 17:30N 34°32' E 135°05'611.3
2017-Dec-08 17:01N 34°26' E 135°05'611.3
2017-Dec-08 16:30N 34°21' E 135°04'611.2
2017-Dec-08 16:00N 34°15' E 135°03'611.3
2017-Dec-08 15:30N 34°09' E 135°03'511.0
2017-Dec-08 15:01N 34°04' E 135°03'711.1
2017-Dec-08 14:22N 33°57' E 135°02'196 8.8
2017-Dec-07 16:13N 34°36' E 138°54'2 8.3
2017-Dec-07 15:55N 34°37' E 138°57'510.7
2017-Dec-07 15:27N 34°41' E 139°01'2410.7
2017-Dec-07 13:11N 34°58' E 139°22'2 9.7
2017-Dec-07 12:59N 34°59' E 139°24'5 9.5
2017-Dec-07 12:30N 35°01' E 139°29'5 9.7
2017-Dec-07 12:00N 35°04' E 139°34'510.9
2017-Dec-07 11:30N 35°06' E 139°40'510.5
2017-Dec-07 11:00N 35°10' E 139°44'611.2
2017-Dec-07 10:30N 35°15' E 139°46'611.5
2017-Dec-07 10:01N 35°20' E 139°42'510.9
2017-Dec-07 09:30N 35°25' E 139°43'4 7.7
2017-Dec-07 09:00N 35°29' E 139°43'0 0.0
2017-Dec-07 08:30N 35°29' E 139°43'0 0.0
2017-Dec-07 08:01N 35°29' E 139°43'0 0.0
2017-Dec-07 07:30N 35°29' E 139°43'0 0.0
2017-Dec-07 07:01N 35°29' E 139°43'0 0.0
2017-Dec-07 06:30N 35°29' E 139°43'0 0.0
2017-Dec-07 06:00N 35°29' E 139°43'0 0.0
2017-Dec-07 05:30N 35°29' E 139°43'0 0.0
2017-Dec-07 05:00N 35°29' E 139°43'2 4.3
2017-Dec-07 04:31N 35°27' E 139°43'1 1.1
2017-Dec-07 04:00N 35°27' E 139°43'0 0.0
2017-Dec-07 03:30N 35°27' E 139°43'0 0.0
2017-Dec-07 03:01N 35°27' E 139°43'0 0.0
2017-Dec-07 02:30N 35°27' E 139°43'0 0.0
2017-Dec-07 02:01N 35°27' E 139°43'0 0.0
2017-Dec-07 01:31N 35°27' E 139°43'0 0.0
2017-Dec-07 01:00N 35°27' E 139°43'0 0.0
2017-Dec-07 00:31N 35°27' E 139°43'0 0.1
2017-Dec-07 00:01N 35°27' E 139°43'0 0.0
2017-Dec-06 23:31N 35°27' E 139°43'0 0.1
2017-Dec-06 23:00N 35°27' E 139°43'0 0.1
2017-Dec-06 22:31N 35°27' E 139°43'0 0.0
2017-Dec-06 22:00N 35°27' E 139°43'0 0.0
2017-Dec-06 21:30N 35°27' E 139°43'0 0.0
2017-Dec-06 21:00N 35°27' E 139°43'  
2017-Dec-02 01:39N 34°31' E 134°01'  
Track history (hours):
 
Tides and Currents Weather Stations Pressure Air Temp Water Temp Dewpoint Dewpoint Depression Visibility Wind Speed Wind Dir Waves Ship Positions

Koki Maru No.30

Last reported at 2017-Dec-11 09:15 UTC. Time now 2017-Dec-11 11:20 UTC.
Position N 34°31' E 134°01'.

Length 53 m; draft 3 m.

Type: Tanker. MMSI: 431000173.

Date/timePositionNaut miles runAvg speedWind from/ knotsBaromVisibWave heightAir tempDewpointWater temp
2017-Dec-11 09:15N 34°31' E 134°01'19 0.4
2017-Dec-09 10:26N 34°26' E 134°24'511.4
2017-Dec-09 10:00N 34°28' E 134°29'611.2
2017-Dec-09 09:31N 34°30' E 134°36'510.9
2017-Dec-09 09:01N 34°32' E 134°42'611.1
2017-Dec-09 08:31N 34°34' E 134°48'510.9
2017-Dec-09 08:01N 34°36' E 134°54'510.4
2017-Dec-09 07:31N 34°37' E 135°00'510.8
2017-Dec-09 07:00N 34°35' E 135°06'611.5
2017-Dec-09 06:31N 34°35' E 135°13'510.0
2017-Dec-09 06:01N 34°34' E 135°19'4 8.9
2017-Dec-09 05:31N 34°33' E 135°24'1 1.7
2017-Dec-09 05:00N 34°33' E 135°25'0 0.0
2017-Dec-09 04:31N 34°33' E 135°25'0 0.0
2017-Dec-09 04:01N 34°33' E 135°25'0 0.0
2017-Dec-09 03:31N 34°33' E 135°25'3 5.5
2017-Dec-09 03:01N 34°33' E 135°22'611.1
2017-Dec-09 02:31N 34°34' E 135°15'611.1
2017-Dec-09 02:01N 34°35' E 135°08'510.1
2017-Dec-09 01:30N 34°36' E 135°02'4 8.0
2017-Dec-09 01:00N 34°37' E 134°57'5 9.7
2017-Dec-09 00:31N 34°38' E 134°52'5 9.9
2017-Dec-09 00:01N 34°41' E 134°48'3 2.1
2017-Dec-08 22:48N 34°44' E 134°48'0 0.0
2017-Dec-08 22:30N 34°44' E 134°48'1 1.4
2017-Dec-08 22:00N 34°43' E 134°48'0 0.1
2017-Dec-08 21:30N 34°43' E 134°48'0 0.1
2017-Dec-08 21:00N 34°43' E 134°48'0 0.0
2017-Dec-08 20:26N 34°43' E 134°48'0 0.0
2017-Dec-08 20:00N 34°43' E 134°48'1 1.5
2017-Dec-08 19:30N 34°43' E 134°48'510.3
2017-Dec-08 19:01N 34°38' E 134°51'5 9.6
2017-Dec-08 18:31N 34°37' E 134°57'510.1
2017-Dec-08 18:01N 34°36' E 135°03'510.0
2017-Dec-08 17:30N 34°32' E 135°05'611.3
2017-Dec-08 17:01N 34°26' E 135°05'611.3
2017-Dec-08 16:30N 34°21' E 135°04'611.2
2017-Dec-08 16:00N 34°15' E 135°03'611.3
2017-Dec-08 15:30N 34°09' E 135°03'511.0
2017-Dec-08 15:01N 34°04' E 135°03'711.1
2017-Dec-08 14:22N 33°57' E 135°02'196 8.8
2017-Dec-07 16:13N 34°36' E 138°54'2 8.3
2017-Dec-07 15:55N 34°37' E 138°57'510.7
2017-Dec-07 15:27N 34°41' E 139°01'2410.7
2017-Dec-07 13:11N 34°58' E 139°22'2 9.7
2017-Dec-07 12:59N 34°59' E 139°24'5 9.5
2017-Dec-07 12:30N 35°01' E 139°29'5 9.7
2017-Dec-07 12:00N 35°04' E 139°34'510.9
2017-Dec-07 11:30N 35°06' E 139°40'510.5
2017-Dec-07 11:00N 35°10' E 139°44'611.2
2017-Dec-07 10:30N 35°15' E 139°46'611.5
2017-Dec-07 10:01N 35°20' E 139°42'510.9
2017-Dec-07 09:30N 35°25' E 139°43'4 7.7
2017-Dec-07 09:00N 35°29' E 139°43'0 0.0
2017-Dec-07 08:30N 35°29' E 139°43'0 0.0
2017-Dec-07 08:01N 35°29' E 139°43'0 0.0
2017-Dec-07 07:30N 35°29' E 139°43'0 0.0
2017-Dec-07 07:01N 35°29' E 139°43'0 0.0
2017-Dec-07 06:30N 35°29' E 139°43'0 0.0
2017-Dec-07 06:00N 35°29' E 139°43'0 0.0
2017-Dec-07 05:30N 35°29' E 139°43'0 0.0
2017-Dec-07 05:00N 35°29' E 139°43'2 4.3
2017-Dec-07 04:31N 35°27' E 139°43'1 1.1
2017-Dec-07 04:00N 35°27' E 139°43'0 0.0
2017-Dec-07 03:30N 35°27' E 139°43'0 0.0
2017-Dec-07 03:01N 35°27' E 139°43'0 0.0
2017-Dec-07 02:30N 35°27' E 139°43'0 0.0
2017-Dec-07 02:01N 35°27' E 139°43'0 0.0
2017-Dec-07 01:31N 35°27' E 139°43'0 0.0
2017-Dec-07 01:00N 35°27' E 139°43'0 0.0
2017-Dec-07 00:31N 35°27' E 139°43'0 0.1
2017-Dec-07 00:01N 35°27' E 139°43'0 0.0
2017-Dec-06 23:31N 35°27' E 139°43'0 0.1
2017-Dec-06 23:00N 35°27' E 139°43'0 0.1
2017-Dec-06 22:31N 35°27' E 139°43'0 0.0
2017-Dec-06 22:00N 35°27' E 139°43'0 0.0
2017-Dec-06 21:30N 35°27' E 139°43'0 0.0
2017-Dec-06 21:00N 35°27' E 139°43'  
2017-Dec-02 01:39N 34°31' E 134°01'  

Dump ship's entire track history